Time;durP1;ratioP1;P1;durP2;ratioP2;P2;SDS_P1;SDS_P2;PMS_P1;PMS_P2;Temp;Humidity;BMP_temperature;BMP_pressure;BME280_temperature;BME280_humidity;BME280_pressure;Samples;Min_cycle;Max_cycle;Signal;HPM_P1;HPM_P2
2022/07/01 00:02:36;;;;;;;5.60;2.15;;;;;;;;;;10323023;28;20034;-66
2022/07/01 00:07:37;;;;;;;9.82;2.67;;;;;;;;;;10314445;28;20034;-66
2022/07/01 00:12:37;;;;;;;16.95;2.88;;;;;;;;;;10317365;28;20470;-64
2022/07/01 00:17:39;;;;;;;8.95;2.85;;;;;;;;;;10321814;28;20045;-65
2022/07/01 00:22:41;;;;;;;8.80;2.40;;;;;;;;;;10317702;28;20153;-63
2022/07/01 00:27:42;;;;;;;10.02;2.35;;;;;;;;;;10316754;28;20046;-63
2022/07/01 00:32:43;;;;;;;4.93;2.22;;;;;;;;;;10316583;28;20066;-67
2022/07/01 00:37:43;;;;;;;8.82;2.63;;;;;;;;;;10311181;28;20117;-66
2022/07/01 00:42:44;;;;;;;7.40;2.63;;;;;;;;;;10319270;28;20030;-64
2022/07/01 00:47:45;;;;;;;9.02;2.47;;;;;;;;;;10321014;28;20276;-65
2022/07/01 00:52:46;;;;;;;10.25;2.70;;;;;;;;;;10324493;28;20180;-64
2022/07/01 00:57:46;;;;;;;9.02;2.67;;;;;;;;;;10318494;28;20042;-64
2022/07/01 01:02:47;;;;;;;20.90;2.83;;;;;;;;;;10312140;28;20026;-64
2022/07/01 01:07:50;;;;;;;5.90;2.60;;;;;;;;;;10316982;28;20038;-65
2022/07/01 01:12:50;;;;;;;7.90;2.72;;;;;;;;;;10312309;28;20482;-65
2022/07/01 01:17:51;;;;;;;5.50;2.53;;;;;;;;;;10307938;28;20046;-65
2022/07/01 01:22:51;;;;;;;6.38;2.20;;;;;;;;;;10321023;28;20097;-60
2022/07/01 01:27:52;;;;;;;5.63;2.10;;;;;;;;;;10314948;28;20047;-66
2022/07/01 01:32:53;;;;;;;4.28;2.20;;;;;;;;;;10308412;28;20038;-64
2022/07/01 01:37:54;;;;;;;4.70;2.35;;;;;;;;;;10316618;28;20472;-66
2022/07/01 01:42:54;;;;;;;4.32;2.45;;;;;;;;;;10308124;28;20114;-63
2022/07/01 01:47:55;;;;;;;6.70;2.67;;;;;;;;;;10303480;28;20065;-64
2022/07/01 01:52:55;;;;;;;3.38;2.13;;;;;;;;;;10316040;28;20088;-64
2022/07/01 01:57:56;;;;;;;6.13;2.50;;;;;;;;;;10301847;28;20043;-64
2022/07/01 02:02:57;;;;;;;7.32;2.45;;;;;;;;;;10299830;28;20030;-63
2022/07/01 02:07:57;;;;;;;9.40;2.60;;;;;;;;;;10298704;28;20390;-62
2022/07/01 02:12:58;;;;;;;11.25;3.00;;;;;;;;;;10304475;28;20105;-63
2022/07/01 02:17:58;;;;;;;5.75;2.53;;;;;;;;;;10309365;28;20041;-61
2022/07/01 02:22:59;;;;;;;12.73;2.65;;;;;;;;;;10321798;28;20037;-62
2022/07/01 02:28:00;;;;;;;5.35;2.05;;;;;;;;;;10320147;28;20261;-65
2022/07/01 02:33:01;;;;;;;5.55;2.17;;;;;;;;;;10318730;28;20032;-63
2022/07/01 02:38:04;;;;;;;6.72;2.65;;;;;;;;;;10314962;28;20133;-64
2022/07/01 02:43:05;;;;;;;4.47;2.20;;;;;;;;;;10333792;28;20030;-66
2022/07/01 02:48:06;;;;;;;8.68;2.00;;;;;;;;;;10317424;28;20022;-66
2022/07/01 02:53:06;;;;;;;4.68;2.42;;;;;;;;;;10328322;28;20121;-64
2022/07/01 02:58:07;;;;;;;5.15;2.67;;;;;;;;;;10320827;28;20038;-65
2022/07/01 03:03:08;;;;;;;5.65;2.47;;;;;;;;;;10328493;28;20466;-61
2022/07/01 03:08:08;;;;;;;3.72;2.35;;;;;;;;;;10321656;28;20389;-61
2022/07/01 03:13:09;;;;;;;4.20;2.53;;;;;;;;;;10330826;28;20536;-63
2022/07/01 03:18:09;;;;;;;5.63;1.90;;;;;;;;;;10327234;28;20050;-65
2022/07/01 03:23:10;;;;;;;6.45;2.30;;;;;;;;;;10309294;28;20608;-64
2022/07/01 03:28:11;;;;;;;4.22;2.15;;;;;;;;;;10315298;28;20426;-63
2022/07/01 03:33:11;;;;;;;17.35;2.53;;;;;;;;;;10322916;28;20169;-60
2022/07/01 03:38:12;;;;;;;2.55;1.90;;;;;;;;;;10318478;28;20030;-61
2022/07/01 03:43:12;;;;;;;6.43;2.20;;;;;;;;;;10308192;28;20080;-60
2022/07/01 03:48:13;;;;;;;3.97;2.10;;;;;;;;;;10308174;28;20575;-61
2022/07/01 03:58:33;;;;;;;6.50;2.30;;;;;;;;;;10316872;28;20034;-61
2022/07/01 04:03:33;;;;;;;6.97;2.35;;;;;;;;;;10323078;28;20094;-61
2022/07/01 04:08:34;;;;;;;5.85;2.40;;;;;;;;;;10315641;28;20366;-62
2022/07/01 04:13:39;;;;;;;9.43;2.25;;;;;;;;;;10316094;28;20405;-59
2022/07/01 04:18:40;;;;;;;3.80;2.22;;;;;;;;;;10316371;28;20332;-60
2022/07/01 04:23:41;;;;;;;4.82;1.98;;;;;;;;;;10318187;28;20127;-61
2022/07/01 04:28:41;;;;;;;7.22;1.92;;;;;;;;;;10311251;28;20023;-61
2022/07/01 04:33:42;;;;;;;5.80;2.03;;;;;;;;;;10312518;28;20389;-60
2022/07/01 04:38:43;;;;;;;6.90;2.25;;;;;;;;;;10310918;28;20111;-62
2022/07/01 04:43:43;;;;;;;15.55;2.80;;;;;;;;;;10313429;28;20038;-59
2022/07/01 04:48:44;;;;;;;15.18;2.92;;;;;;;;;;10311688;28;20034;-62
2022/07/01 04:53:44;;;;;;;16.88;2.33;;;;;;;;;;10319311;28;20039;-61
2022/07/01 04:58:45;;;;;;;17.20;2.33;;;;;;;;;;10305949;28;20277;-65
2022/07/01 05:03:46;;;;;;;6.43;2.42;;;;;;;;;;10311632;28;20052;-58
2022/07/01 05:08:47;;;;;;;11.32;2.50;;;;;;;;;;10310350;28;20034;-61
2022/07/01 05:13:47;;;;;;;11.65;2.88;;;;;;;;;;10308345;28;20390;-62
2022/07/01 05:24:08;;;;;;;5.53;2.42;;;;;;;;;;10317721;28;20051;-62
2022/07/01 05:29:08;;;;;;;8.52;2.22;;;;;;;;;;10308939;28;20022;-54
2022/07/01 05:34:11;;;;;;;13.45;3.70;;;;;;;;;;10305677;28;20047;-52
2022/07/01 05:39:12;;;;;;;13.20;3.78;;;;;;;;;;10302482;28;20104;-55
2022/07/01 05:44:13;;;;;;;10.80;3.10;;;;;;;;;;10308546;28;20034;-57
2022/07/01 05:49:13;;;;;;;14.88;3.08;;;;;;;;;;10307414;28;20027;-56
2022/07/01 05:54:14;;;;;;;18.70;4.25;;;;;;;;;;10315408;28;20031;-56
2022/07/01 05:59:14;;;;;;;22.15;3.67;;;;;;;;;;10306425;28;20038;-56
2022/07/01 06:04:15;;;;;;;12.60;3.92;;;;;;;;;;10310502;28;20445;-56
2022/07/01 06:09:16;;;;;;;24.92;4.50;;;;;;;;;;10318958;28;20157;-57
2022/07/01 06:14:16;;;;;;;10.13;4.07;;;;;;;;;;10319486;28;20274;-56
2022/07/01 06:19:17;;;;;;;11.38;3.22;;;;;;;;;;10318777;28;20026;-56
2022/07/01 06:24:17;;;;;;;8.38;3.47;;;;;;;;;;10322506;28;20042;-56
2022/07/01 06:29:18;;;;;;;9.55;4.00;;;;;;;;;;10320915;28;20397;-57
2022/07/01 06:34:19;;;;;;;10.45;3.60;;;;;;;;;;10324493;28;20069;-56
2022/07/01 06:39:19;;;;;;;8.40;3.35;;;;;;;;;;10314963;28;20030;-55
2022/07/01 06:44:20;;;;;;;11.85;3.70;;;;;;;;;;10313810;28;20371;-55
2022/07/01 06:49:21;;;;;;;10.40;3.47;;;;;;;;;;10312376;28;20046;-55
2022/07/01 06:54:21;;;;;;;14.25;4.22;;;;;;;;;;10316095;28;20045;-56
2022/07/01 06:59:22;;;;;;;18.98;4.13;;;;;;;;;;10319760;28;20038;-54
2022/07/01 07:04:23;;;;;;;8.80;4.03;;;;;;;;;;10308461;28;20031;-55
2022/07/01 07:09:23;;;;;;;12.48;4.10;;;;;;;;;;10321583;28;20030;-57
2022/07/01 07:14:24;;;;;;;10.65;4.03;;;;;;;;;;10313365;28;20030;-56
2022/07/01 07:19:24;;;;;;;20.75;4.43;;;;;;;;;;10318734;28;20041;-55
2022/07/01 07:24:25;;;;;;;14.25;4.47;;;;;;;;;;10323406;28;20045;-55
2022/07/01 07:29:25;;;;;;;11.95;3.92;;;;;;;;;;10331792;28;20030;-57
2022/07/01 07:34:26;;;;;;;10.60;3.75;;;;;;;;;;10323099;28;20022;-55
2022/07/01 07:39:27;;;;;;;9.98;3.88;;;;;;;;;;10323002;28;20019;-55
2022/07/01 07:44:28;;;;;;;12.23;3.40;;;;;;;;;;10322423;28;20109;-53
2022/07/01 07:49:29;;;;;;;11.65;4.28;;;;;;;;;;10324915;28;20046;-57
2022/07/01 07:54:29;;;;;;;12.57;4.00;;;;;;;;;;10328325;28;20391;-57
2022/07/01 07:59:30;;;;;;;12.15;3.60;;;;;;;;;;10321465;28;20386;-56
2022/07/01 08:04:31;;;;;;;10.02;3.67;;;;;;;;;;10325214;28;20028;-57
2022/07/01 08:09:34;;;;;;;9.23;3.70;;;;;;;;;;10323277;28;20425;-55
2022/07/01 08:14:35;;;;;;;10.50;3.58;;;;;;;;;;10307599;28;20089;-58
2022/07/01 08:19:35;;;;;;;9.05;3.47;;;;;;;;;;10294185;28;20174;-58
2022/07/01 08:24:36;;;;;;;8.02;3.55;;;;;;;;;;10319437;28;20038;-57
2022/07/01 08:29:36;;;;;;;9.52;3.55;;;;;;;;;;10322077;28;20041;-58
2022/07/01 08:34:37;;;;;;;11.32;3.90;;;;;;;;;;10310321;28;20493;-58
2022/07/01 08:39:38;;;;;;;7.53;3.10;;;;;;;;;;10305002;28;20030;-57
2022/07/01 08:44:38;;;;;;;13.73;3.72;;;;;;;;;;10310273;28;20030;-57
2022/07/01 08:49:39;;;;;;;9.52;3.20;;;;;;;;;;10315006;28;20383;-57
2022/07/01 08:54:41;;;;;;;9.00;3.45;;;;;;;;;;10309287;28;20027;-54
2022/07/01 08:59:41;;;;;;;8.30;3.38;;;;;;;;;;10306803;28;20038;-56
2022/07/01 09:04:42;;;;;;;13.43;3.42;;;;;;;;;;10320289;28;20027;-53
2022/07/01 09:09:43;;;;;;;8.00;3.20;;;;;;;;;;10319467;28;20031;-55
2022/07/01 09:14:43;;;;;;;10.07;3.83;;;;;;;;;;10313299;28;20031;-57
2022/07/01 09:19:50;;;;;;;15.48;4.13;;;;;;;;;;10312196;28;20041;-58
2022/07/01 09:24:51;;;;;;;10.30;3.58;;;;;;;;;;10319108;28;20042;-58
2022/07/01 09:29:52;;;;;;;13.63;3.78;;;;;;;;;;10303731;28;20054;-51
2022/07/01 09:34:53;;;;;;;9.90;3.50;;;;;;;;;;10303911;28;20026;-57
2022/07/01 09:39:57;;;;;;;9.88;3.25;;;;;;;;;;10322790;28;20026;-57
2022/07/01 09:45:07;;;;;;;8.95;3.22;;;;;;;;;;10306336;28;20025;-56
2022/07/01 09:50:09;;;;;;;12.70;3.60;;;;;;;;;;10304820;28;20073;-58
2022/07/01 09:55:10;;;;;;;8.85;3.40;;;;;;;;;;10295749;28;20030;-54
2022/07/01 10:00:12;;;;;;;5.38;3.17;;;;;;;;;;10314750;28;20049;-58
2022/07/01 10:05:19;;;;;;;14.45;3.78;;;;;;;;;;10324710;28;20030;-56
2022/07/01 10:10:53;;;;;;;14.38;3.78;;;;;;;;;;10326735;28;20022;-56
2022/07/01 10:15:56;;;;;;;12.00;3.75;;;;;;;;;;10317824;28;20116;-55
2022/07/01 10:20:58;;;;;;;17.95;3.55;;;;;;;;;;10322331;28;20068;-54
2022/07/01 10:26:04;;;;;;;14.35;3.88;;;;;;;;;;10306950;28;20057;-55
2022/07/01 10:31:13;;;;;;;11.82;3.35;;;;;;;;;;10317276;28;20035;-55
2022/07/01 10:36:22;;;;;;;10.05;3.72;;;;;;;;;;10309984;28;20039;-54
2022/07/01 10:41:25;;;;;;;12.63;3.75;;;;;;;;;;10302655;28;20658;-59
2022/07/01 10:46:58;;;;;;;14.00;3.40;;;;;;;;;;10314827;28;20069;-58
2022/07/01 10:51:58;;;;;;;7.63;3.17;;;;;;;;;;10307793;28;20027;-57
2022/07/01 10:57:19;;;;;;;12.55;3.53;;;;;;;;;;10321024;28;20425;-56
2022/07/01 11:02:23;;;;;;;7.20;3.05;;;;;;;;;;10321703;28;20022;-57
2022/07/01 11:07:27;;;;;;;13.27;3.30;;;;;;;;;;10315624;28;20066;-58
2022/07/01 11:12:29;;;;;;;13.88;3.78;;;;;;;;;;10318863;28;20034;-56
2022/07/01 11:17:29;;;;;;;7.60;3.08;;;;;;;;;;10318216;28;20031;-53
2022/07/01 11:22:33;;;;;;;10.90;3.92;;;;;;;;;;10315460;28;20034;-59
2022/07/01 11:27:35;;;;;;;8.23;3.28;;;;;;;;;;10320813;28;20126;-52
2022/07/01 11:32:41;;;;;;;9.45;3.20;;;;;;;;;;10324324;28;20022;-58
2022/07/01 11:43:01;;;;;;;16.73;3.40;;;;;;;;;;10320837;28;20129;-58
2022/07/01 11:48:02;;;;;;;5.63;3.00;;;;;;;;;;10309559;28;20030;-57
2022/07/01 11:53:03;;;;;;;8.88;2.80;;;;;;;;;;10307007;28;20073;-58
2022/07/01 11:58:05;;;;;;;6.82;3.33;;;;;;;;;;10310405;28;20039;-57
2022/07/01 12:03:07;;;;;;;13.85;4.10;;;;;;;;;;10328410;28;20034;-54
2022/07/01 12:08:07;;;;;;;6.90;2.95;;;;;;;;;;10306974;28;20494;-59
2022/07/01 12:13:24;;;;;;;7.35;2.67;;;;;;;;;;10323602;28;20030;-58
2022/07/01 12:18:25;;;;;;;8.27;3.10;;;;;;;;;;10319516;28;20402;-58
2022/07/01 12:23:26;;;;;;;9.40;3.15;;;;;;;;;;10321723;28;20459;-58
2022/07/01 12:28:38;;;;;;;6.03;2.90;;;;;;;;;;10309485;28;20134;-55
2022/07/01 12:33:48;;;;;;;8.30;2.85;;;;;;;;;;10320159;28;20046;-57
2022/07/01 12:39:03;;;;;;;4.75;2.35;;;;;;;;;;10310305;28;20042;-56
2022/07/01 12:44:24;;;;;;;8.10;2.80;;;;;;;;;;10317488;28;20066;-59
2022/07/01 12:49:25;;;;;;;7.60;2.60;;;;;;;;;;10312334;28;20033;-57
2022/07/01 12:54:36;;;;;;;7.03;2.85;;;;;;;;;;10299828;28;20026;-55
2022/07/01 12:59:36;;;;;;;5.85;2.60;;;;;;;;;;10314059;28;20034;-58
2022/07/01 13:04:37;;;;;;;6.05;2.72;;;;;;;;;;10308468;28;20027;-56
2022/07/01 13:09:38;;;;;;;5.53;2.63;;;;;;;;;;10322137;28;20474;-54
2022/07/01 13:14:38;;;;;;;8.13;2.70;;;;;;;;;;10313731;28;20035;-57
2022/07/01 13:19:39;;;;;;;10.32;2.63;;;;;;;;;;10311307;28;20033;-57
2022/07/01 13:24:39;;;;;;;6.30;2.70;;;;;;;;;;10322412;28;20046;-58
2022/07/01 13:29:40;;;;;;;6.18;2.80;;;;;;;;;;10317489;28;20502;-59
2022/07/01 13:34:41;;;;;;;6.93;2.92;;;;;;;;;;10311263;28;20379;-57
2022/07/01 13:39:41;;;;;;;9.13;2.67;;;;;;;;;;10312861;28;20066;-57
2022/07/01 13:44:42;;;;;;;7.15;2.28;;;;;;;;;;10308693;28;20031;-57
2022/07/01 13:49:43;;;;;;;9.00;2.78;;;;;;;;;;10310449;28;20367;-58
2022/07/01 13:54:43;;;;;;;8.77;3.33;;;;;;;;;;10310659;28;20033;-57
2022/07/01 13:59:44;;;;;;;10.82;2.70;;;;;;;;;;10302955;28;20061;-58
2022/07/01 14:04:46;;;;;;;8.73;2.80;;;;;;;;;;10308936;28;20367;-58
2022/07/01 14:09:47;;;;;;;6.15;2.60;;;;;;;;;;10299575;28;20069;-55
2022/07/01 14:14:48;;;;;;;8.90;2.90;;;;;;;;;;10317420;28;20090;-57
2022/07/01 14:19:48;;;;;;;6.20;2.88;;;;;;;;;;10311919;28;20034;-58
2022/07/01 14:24:49;;;;;;;8.57;2.90;;;;;;;;;;10312487;28;20062;-57
2022/07/01 14:29:50;;;;;;;9.40;2.92;;;;;;;;;;10320725;28;20108;-57
2022/07/01 14:34:50;;;;;;;6.43;2.80;;;;;;;;;;10312222;28;20037;-58
2022/07/01 14:39:55;;;;;;;8.75;3.15;;;;;;;;;;10317321;28;20061;-56
2022/07/01 14:44:56;;;;;;;6.70;3.00;;;;;;;;;;10321264;28;20042;-57
2022/07/01 14:49:57;;;;;;;8.55;3.03;;;;;;;;;;10299157;28;20031;-55
2022/07/01 14:54:58;;;;;;;8.45;3.10;;;;;;;;;;10314962;28;20027;-58
2022/07/01 14:59:59;;;;;;;9.20;3.40;;;;;;;;;;10306196;28;20042;-55
2022/07/01 15:04:59;;;;;;;7.15;3.15;;;;;;;;;;10293338;28;20402;-58
2022/07/01 15:10:01;;;;;;;12.65;3.50;;;;;;;;;;10312620;28;20033;-57
2022/07/01 15:15:02;;;;;;;8.52;3.30;;;;;;;;;;10300844;28;20031;-58
2022/07/01 15:20:03;;;;;;;6.88;2.95;;;;;;;;;;10293506;28;20075;-56
2022/07/01 15:25:04;;;;;;;14.98;3.40;;;;;;;;;;10297209;28;20138;-57
2022/07/01 15:30:07;;;;;;;10.50;2.80;;;;;;;;;;10315318;28;20474;-58
2022/07/01 15:35:09;;;;;;;9.05;3.22;;;;;;;;;;10317983;28;20026;-58
2022/07/01 15:40:10;;;;;;;7.10;2.92;;;;;;;;;;10326494;28;20378;-56
2022/07/01 15:45:11;;;;;;;9.80;3.22;;;;;;;;;;10326319;28;20022;-57
2022/07/01 15:50:12;;;;;;;9.48;3.55;;;;;;;;;;10329611;28;20022;-57
2022/07/01 15:55:13;;;;;;;12.07;3.30;;;;;;;;;;10315609;28;20022;-57
2022/07/01 16:00:14;;;;;;;12.05;3.10;;;;;;;;;;10329653;28;20114;-55
2022/07/01 16:05:14;;;;;;;6.45;2.95;;;;;;;;;;10318935;28;20474;-57
2022/07/01 16:10:31;;;;;;;9.50;2.80;;;;;;;;;;10330541;28;20498;-57
2022/07/01 16:15:34;;;;;;;7.50;2.97;;;;;;;;;;10322731;28;20105;-57
2022/07/01 16:20:41;;;;;;;8.07;2.83;;;;;;;;;;10319077;28;20114;-57
2022/07/01 16:25:44;;;;;;;7.18;2.30;;;;;;;;;;10324493;28;20128;-58
2022/07/01 16:30:46;;;;;;;14.07;3.03;;;;;;;;;;10321780;28;20026;-58
2022/07/01 16:36:31;;;;;;;15.23;3.45;;;;;;;;;;10317331;28;20027;-57
2022/07/01 16:41:42;;;;;;;11.15;3.22;;;;;;;;;;10327529;28;20054;-57
2022/07/01 16:46:44;;;;;;;4.97;2.70;;;;;;;;;;10323794;28;20377;-56
2022/07/01 16:51:46;;;;;;;8.13;3.13;;;;;;;;;;10312159;28;20034;-55
2022/07/01 16:56:52;;;;;;;8.23;2.88;;;;;;;;;;10317463;28;20026;-57
2022/07/01 17:01:54;;;;;;;9.82;3.10;;;;;;;;;;10306704;28;20043;-57
2022/07/01 17:06:55;;;;;;;7.85;3.47;;;;;;;;;;10311848;28;20173;-57
2022/07/01 17:11:58;;;;;;;7.68;2.65;;;;;;;;;;10314821;28;20038;-56
2022/07/01 17:17:00;;;;;;;9.48;3.15;;;;;;;;;;10320857;28;20019;-58
2022/07/01 17:22:07;;;;;;;10.73;3.15;;;;;;;;;;10316925;28;20508;-57
2022/07/01 17:28:15;;;;;;;13.90;3.40;;;;;;;;;;10313303;28;20046;-57
2022/07/01 17:33:17;;;;;;;9.73;2.97;;;;;;;;;;10309820;28;20026;-57
2022/07/01 17:38:22;;;;;;;5.65;2.72;;;;;;;;;;10310783;28;20026;-57
2022/07/01 17:43:24;;;;;;;9.68;3.35;;;;;;;;;;10310183;28;20277;-57
2022/07/01 17:48:26;;;;;;;12.52;2.75;;;;;;;;;;10308786;28;20398;-56
2022/07/01 17:53:28;;;;;;;6.68;3.10;;;;;;;;;;10324190;28;20057;-57
2022/07/01 17:58:29;;;;;;;6.47;2.72;;;;;;;;;;10326746;28;20536;-57
2022/07/01 18:03:32;;;;;;;7.43;3.00;;;;;;;;;;10309108;28;20026;-57
2022/07/01 18:08:33;;;;;;;6.90;2.97;;;;;;;;;;10309510;28;20066;-58
2022/07/01 18:14:13;;;;;;;6.95;2.70;;;;;;;;;;10312263;28;20050;-58
2022/07/01 18:19:37;;;;;;;6.32;2.85;;;;;;;;;;10319291;28;20077;-57
2022/07/01 18:24:51;;;;;;;7.00;2.60;;;;;;;;;;10315143;28;20045;-58
2022/07/01 18:29:55;;;;;;;6.82;3.05;;;;;;;;;;10317345;28;20030;-56
2022/07/01 18:35:02;;;;;;;3.58;2.40;;;;;;;;;;10320703;28;20496;-57
2022/07/01 18:40:03;;;;;;;7.30;2.97;;;;;;;;;;10309450;28;20026;-57
2022/07/01 18:45:05;;;;;;;6.88;2.72;;;;;;;;;;10317193;28;20041;-58
2022/07/01 18:50:10;;;;;;;7.35;2.65;;;;;;;;;;10317098;28;20042;-58
2022/07/01 18:55:10;;;;;;;5.18;2.40;;;;;;;;;;10315897;28;20470;-54
2022/07/01 19:00:20;;;;;;;5.68;2.53;;;;;;;;;;10308388;28;20026;-57
2022/07/01 19:05:22;;;;;;;3.85;2.25;;;;;;;;;;10323085;28;20027;-57
2022/07/01 19:10:23;;;;;;;5.80;2.45;;;;;;;;;;10324425;28;20267;-58
2022/07/01 19:15:23;;;;;;;4.85;2.55;;;;;;;;;;10316864;28;20258;-57
2022/07/01 19:20:24;;;;;;;5.75;2.42;;;;;;;;;;10318420;28;20364;-57
2022/07/01 19:25:25;;;;;;;8.52;2.78;;;;;;;;;;10323681;28;20437;-58
2022/07/01 19:30:26;;;;;;;5.25;2.17;;;;;;;;;;10323214;28;20397;-57
2022/07/01 19:35:27;;;;;;;5.05;2.50;;;;;;;;;;10322790;28;20029;-57
2022/07/01 19:40:27;;;;;;;6.97;2.47;;;;;;;;;;10323281;28;20031;-57
2022/07/01 19:45:28;;;;;;;4.97;2.70;;;;;;;;;;10321752;28;20018;-58
2022/07/01 19:50:28;;;;;;;7.68;2.28;;;;;;;;;;10318746;28;20041;-57
2022/07/01 19:55:29;;;;;;;8.05;2.67;;;;;;;;;;10317446;28;20436;-57
2022/07/01 20:00:30;;;;;;;5.57;2.75;;;;;;;;;;10317180;28;20030;-57
2022/07/01 20:05:31;;;;;;;4.90;2.30;;;;;;;;;;10323816;28;20030;-58
2022/07/01 20:10:32;;;;;;;5.65;2.22;;;;;;;;;;10323909;28;20458;-57
2022/07/01 20:15:33;;;;;;;3.92;1.95;;;;;;;;;;10322802;28;20029;-58
2022/07/01 20:20:33;;;;;;;9.18;2.40;;;;;;;;;;10323035;28;20053;-57
2022/07/01 20:25:34;;;;;;;3.95;2.22;;;;;;;;;;10326425;28;20524;-58
2022/07/01 20:30:35;;;;;;;4.32;2.33;;;;;;;;;;10328354;28;20073;-58
2022/07/01 20:35:35;;;;;;;4.13;1.70;;;;;;;;;;10322828;28;20077;-57
2022/07/01 20:40:36;;;;;;;4.32;2.33;;;;;;;;;;10329242;28;20026;-58
2022/07/01 20:45:36;;;;;;;4.20;2.13;;;;;;;;;;10323881;28;20023;-58
2022/07/01 20:50:37;;;;;;;5.00;2.22;;;;;;;;;;10323748;28;20029;-56
2022/07/01 20:55:38;;;;;;;5.28;2.30;;;;;;;;;;10318168;28;20399;-56
2022/07/01 21:00:38;;;;;;;4.35;2.17;;;;;;;;;;10328725;28;20041;-58
2022/07/01 21:05:39;;;;;;;3.83;2.00;;;;;;;;;;10318225;28;20019;-58
2022/07/01 21:10:39;;;;;;;3.78;1.90;;;;;;;;;;10318072;28;20181;-57
2022/07/01 21:15:40;;;;;;;3.03;2.13;;;;;;;;;;10322286;28;20014;-57
2022/07/01 21:20:41;;;;;;;4.28;2.33;;;;;;;;;;10312434;28;20061;-57
2022/07/01 21:25:42;;;;;;;3.80;2.13;;;;;;;;;;10318912;28;20556;-57
2022/07/01 21:30:42;;;;;;;4.38;1.88;;;;;;;;;;10320555;28;20027;-57
2022/07/01 21:35:43;;;;;;;3.42;2.03;;;;;;;;;;10305618;28;20473;-56
2022/07/01 21:40:44;;;;;;;4.20;2.40;;;;;;;;;;10312477;28;20035;-57
2022/07/01 21:45:45;;;;;;;2.78;2.05;;;;;;;;;;10311077;28;20127;-56
2022/07/01 21:50:46;;;;;;;3.17;1.90;;;;;;;;;;10314276;28;20133;-57
2022/07/01 21:55:49;;;;;;;2.35;1.90;;;;;;;;;;10321551;28;20084;-57
2022/07/01 22:00:50;;;;;;;4.28;1.80;;;;;;;;;;10309921;28;20037;-57
2022/07/01 22:11:12;;;;;;;2.65;1.90;;;;;;;;;;10326028;28;20235;-56
2022/07/01 22:16:14;;;;;;;3.42;1.83;;;;;;;;;;10324056;28;20106;-56
2022/07/01 22:21:16;;;;;;;2.97;1.83;;;;;;;;;;10322893;28;20097;-56
2022/07/01 22:26:17;;;;;;;3.25;1.80;;;;;;;;;;10315643;28;20060;-57
2022/07/01 22:31:19;;;;;;;2.92;1.80;;;;;;;;;;10316828;28;20034;-57
2022/07/01 22:36:20;;;;;;;2.30;1.77;;;;;;;;;;10315101;28;20122;-57
2022/07/01 22:41:22;;;;;;;3.85;1.88;;;;;;;;;;10325145;28;20092;-57
2022/07/01 22:46:39;;;;;;;3.88;2.08;;;;;;;;;;10329716;28;20034;-57
2022/07/01 22:52:11;;;;;;;4.57;1.90;;;;;;;;;;10324964;28;20022;-56
2022/07/01 22:57:49;;;;;;;2.65;1.98;;;;;;;;;;10332113;28;20030;-57
2022/07/01 23:02:53;;;;;;;2.17;1.90;;;;;;;;;;10312917;28;20023;-57
2022/07/01 23:07:55;;;;;;;2.05;1.63;;;;;;;;;;10312274;28;20030;-57
2022/07/01 23:13:21;;;;;;;2.15;1.60;;;;;;;;;;10325859;28;20270;-58
2022/07/01 23:18:26;;;;;;;3.60;1.98;;;;;;;;;;10316779;28;20154;-56
2022/07/01 23:23:27;;;;;;;3.22;2.28;;;;;;;;;;10312626;28;20468;-58
2022/07/01 23:28:29;;;;;;;4.25;1.67;;;;;;;;;;10326502;28;20042;-57
2022/07/01 23:33:31;;;;;;;2.88;1.90;;;;;;;;;;10326943;28;20030;-56
2022/07/01 23:38:34;;;;;;;4.18;1.83;;;;;;;;;;10316120;28;20045;-57
2022/07/01 23:43:34;;;;;;;2.70;2.05;;;;;;;;;;10315705;28;20674;-56
2022/07/01 23:48:35;;;;;;;2.15;1.58;;;;;;;;;;10320890;28;20262;-57
2022/07/01 23:53:36;;;;;;;5.55;2.17;;;;;;;;;;10319621;28;20026;-58
2022/07/01 23:58:37;;;;;;;2.30;1.58;;;;;;;;;;10317448;28;20394;-57
